Time;durP1;ratioP1;P1;durP2;ratioP2;P2;SDS_P1;SDS_P2;PMS_P1;PMS_P2;Temp;Humidity;BMP_temperature;BMP_pressure;BME280_temperature;BME280_humidity;BME280_pressure;Samples;Min_cycle;Max_cycle;Signal;HPM_P1;HPM_P2
2021/09/18 00:01:50;;;;;;;380.53;356.10;;;11.70;99.90;;;;;;5054042;28;20455;-85
2021/09/18 00:04:18;;;;;;;382.73;358.13;;;11.70;99.90;;;;;;5053812;28;20825;-88
2021/09/18 00:06:45;;;;;;;386.07;362.20;;;11.80;99.90;;;;;;5053842;28;20543;-87
2021/09/18 00:09:12;;;;;;;376.17;352.80;;;11.80;99.90;;;;;;5054071;28;20459;-88
2021/09/18 00:11:39;;;;;;;372.80;350.30;;;11.70;99.90;;;;;;5053111;28;20624;-88
2021/09/18 00:14:06;;;;;;;373.63;349.50;;;11.60;99.90;;;;;;5054267;28;20546;-87
2021/09/18 00:16:33;;;;;;;383.90;359.03;;;11.70;99.90;;;;;;5053886;28;20554;-88
2021/09/18 00:19:00;;;;;;;391.47;364.87;;;11.70;99.90;;;;;;5053517;28;20551;-88
2021/09/18 00:21:28;;;;;;;388.00;362.37;;;11.90;99.90;;;;;;5053602;28;20483;-86
2021/09/18 00:23:55;;;;;;;407.93;381.63;;;11.90;99.90;;;;;;5053839;28;20490;-86
2021/09/18 00:26:22;;;;;;;401.07;373.77;;;11.80;99.90;;;;;;5052748;28;20451;-88
2021/09/18 00:28:48;;;;;;;397.53;372.03;;;12.00;99.90;;;;;;5053523;28;20566;-89
2021/09/18 00:31:15;;;;;;;405.83;378.50;;;11.90;99.90;;;;;;5053409;28;20784;-83
2021/09/18 00:33:42;;;;;;;402.97;376.40;;;11.80;99.90;;;;;;5053433;28;20451;-87
2021/09/18 00:36:09;;;;;;;397.00;371.03;;;11.80;99.90;;;;;;5053508;28;20459;-87
2021/09/18 00:38:37;;;;;;;401.63;374.17;;;11.70;99.90;;;;;;5053479;28;20462;-87
2021/09/18 00:41:04;;;;;;;417.93;389.17;;;11.80;99.90;;;;;;5051368;28;20483;-88
2021/09/18 00:43:31;;;;;;;404.50;377.43;;;11.80;99.90;;;;;;5053300;28;20559;-88
2021/09/18 00:45:58;;;;;;;402.40;376.90;;;11.80;99.90;;;;;;5053306;28;20454;-88
2021/09/18 00:48:24;;;;;;;391.30;365.90;;;11.80;99.90;;;;;;5039858;28;20448;-88
2021/09/18 00:50:51;;;;;;;398.70;371.87;;;11.70;99.90;;;;;;5033268;28;20452;-88
2021/09/18 00:53:18;;;;;;;397.27;369.97;;;11.60;99.90;;;;;;5033499;28;20884;-87
2021/09/18 00:55:46;;;;;;;408.57;381.07;;;11.60;99.90;;;;;;5032079;28;20535;-86
2021/09/18 00:58:13;;;;;;;406.03;379.70;;;11.60;99.90;;;;;;5033126;28;20463;-84
2021/09/18 01:00:40;;;;;;;397.37;372.20;;;11.50;99.90;;;;;;5033096;28;20479;-86
2021/09/18 01:03:07;;;;;;;386.37;362.67;;;11.50;99.90;;;;;;5033059;28;20566;-87
2021/09/18 01:05:34;;;;;;;400.93;373.47;;;11.50;99.90;;;;;;5033071;28;20448;-84
2021/09/18 01:08:02;;;;;;;407.23;379.63;;;11.40;99.90;;;;;;5033022;28;20547;-88
2021/09/18 01:10:29;;;;;;;401.23;373.53;;;11.40;99.90;;;;;;5031924;28;20486;-88
2021/09/18 01:13:03;;;;;;;395.03;369.80;;;11.40;99.90;;;;;;5032946;28;20444;-86
2021/09/18 01:15:32;;;;;;;410.33;382.50;;;11.40;99.90;;;;;;5032926;28;20499;-87
2021/09/18 01:17:59;;;;;;;417.27;388.80;;;11.40;99.90;;;;;;5032818;28;20463;-87
2021/09/18 01:20:27;;;;;;;423.27;393.80;;;11.40;99.90;;;;;;5046137;28;20483;-87
2021/09/18 01:22:57;;;;;;;423.97;394.97;;;11.50;99.90;;;;;;5052786;28;20466;-88
2021/09/18 01:25:26;;;;;;;434.17;403.20;;;11.50;99.90;;;;;;5051601;28;20470;-88
2021/09/18 01:27:53;;;;;;;426.67;398.00;;;11.60;99.90;;;;;;5052604;28;20546;-84
2021/09/18 01:30:21;;;;;;;431.80;401.70;;;11.60;99.90;;;;;;5052388;28;20578;-88
2021/09/18 01:32:49;;;;;;;423.70;395.27;;;11.60;99.90;;;;;;5052897;28;20544;-87
2021/09/18 01:35:16;;;;;;;420.73;391.40;;;11.50;99.90;;;;;;5052571;28;20455;-84
2021/09/18 01:37:46;;;;;;;418.83;389.77;;;11.60;99.90;;;;;;5052764;28;20481;-85
2021/09/18 01:40:14;;;;;;;421.83;391.47;;;11.50;99.90;;;;;;5052538;28;20511;-87
2021/09/18 01:42:45;;;;;;;436.90;405.90;;;11.60;99.90;;;;;;5051721;28;20454;-85
2021/09/18 01:45:13;;;;;;;426.93;399.70;;;11.60;99.90;;;;;;5052505;28;20558;-87
2021/09/18 01:47:45;;;;;;;430.23;401.60;;;11.70;99.90;;;;;;5052350;28;20554;-88
2021/09/18 01:50:30;;;;;;;438.83;409.30;;;11.60;99.90;;;;;;5052420;28;20981;-85
2021/09/18 01:52:59;;;;;;;436.00;408.20;;;11.70;99.90;;;;;;5054339;28;20455;-87
2021/09/18 01:55:26;;;;;;;420.13;393.83;;;11.50;99.90;;;;;;5055557;28;20562;-87
2021/09/18 01:57:56;;;;;;;422.27;394.17;;;11.50;99.90;;;;;;5056475;28;20467;-86
2021/09/18 02:00:24;;;;;;;418.27;391.47;;;11.50;99.90;;;;;;5056348;28;20562;-86
2021/09/18 02:02:51;;;;;;;419.27;393.07;;;11.40;99.90;;;;;;5056426;28;20562;-86
2021/09/18 02:05:21;;;;;;;404.30;379.10;;;11.30;99.90;;;;;;5056287;28;20451;-86
2021/09/18 02:07:48;;;;;;;407.77;381.90;;;11.20;99.90;;;;;;5056466;28;20898;-87
2021/09/18 02:10:17;;;;;;;419.73;391.40;;;11.10;99.90;;;;;;5056099;28;20489;-87
2021/09/18 02:12:45;;;;;;;438.60;408.00;;;11.10;99.90;;;;;;5055700;28;20546;-85
2021/09/18 02:15:15;;;;;;;443.90;413.40;;;11.20;99.90;;;;;;5055873;28;20455;-87
2021/09/18 02:17:43;;;;;;;421.57;395.47;;;11.20;99.90;;;;;;5056151;28;20470;-87
2021/09/18 02:20:12;;;;;;;430.33;401.30;;;11.20;99.90;;;;;;5048446;28;20549;-87
2021/09/18 02:22:40;;;;;;;439.57;409.07;;;11.10;99.90;;;;;;5056038;28;20534;-88
2021/09/18 02:25:08;;;;;;;438.23;407.17;;;11.20;99.90;;;;;;5055858;28;20450;-87
2021/09/18 02:27:35;;;;;;;433.00;403.07;;;11.20;99.90;;;;;;5054636;28;21001;-87
2021/09/18 02:30:02;;;;;;;435.30;404.10;;;11.10;99.90;;;;;;5055779;28;20488;-88
2021/09/18 02:32:34;;;;;;;425.43;397.33;;;11.10;99.90;;;;;;5055875;28;20466;-84
2021/09/18 02:35:01;;;;;;;420.97;392.57;;;11.10;99.90;;;;;;5055619;28;20459;-87
2021/09/18 02:37:28;;;;;;;437.60;407.33;;;11.00;99.90;;;;;;5055571;28;20455;-85
2021/09/18 02:39:55;;;;;;;434.90;405.93;;;11.00;99.90;;;;;;5055536;28;20477;-87
2021/09/18 02:42:22;;;;;;;425.00;394.50;;;11.10;99.90;;;;;;5054274;28;20569;-86
2021/09/18 02:44:49;;;;;;;426.07;396.87;;;11.00;99.90;;;;;;5055313;28;20455;-86
2021/09/18 02:47:15;;;;;;;422.27;393.57;;;11.10;99.90;;;;;;5055370;28;20455;-86
2021/09/18 02:49:44;;;;;;;423.57;393.57;;;11.10;99.90;;;;;;5055325;28;20501;-86
2021/09/18 02:52:11;;;;;;;427.40;398.40;;;11.00;99.90;;;;;;5055517;28;20544;-88
2021/09/18 02:54:38;;;;;;;424.10;396.60;;;10.90;99.90;;;;;;5055160;28;20550;-85
2021/09/18 02:57:05;;;;;;;424.43;396.33;;;10.90;99.90;;;;;;5054253;28;20455;-85
2021/09/18 02:59:32;;;;;;;426.70;399.97;;;11.00;99.90;;;;;;5055193;28;20455;-87
2021/09/18 03:01:58;;;;;;;417.87;389.20;;;11.00;99.90;;;;;;5055066;28;20522;-86
2021/09/18 03:04:25;;;;;;;435.17;406.40;;;11.00;99.90;;;;;;5054346;28;20550;-85
2021/09/18 03:06:54;;;;;;;423.93;395.13;;;10.90;99.90;;;;;;5055140;28;20455;-84
2021/09/18 03:09:23;;;;;;;427.23;397.90;;;10.90;99.90;;;;;;5054961;28;20547;-86
2021/09/18 03:11:50;;;;;;;432.30;400.50;;;10.80;99.90;;;;;;5053872;28;20455;-85
2021/09/18 03:14:17;;;;;;;426.23;398.23;;;10.80;99.90;;;;;;5054738;28;20455;-86
2021/09/18 03:16:44;;;;;;;422.43;392.73;;;10.70;99.90;;;;;;5054816;28;20523;-87
2021/09/18 03:19:10;;;;;;;415.47;389.10;;;10.70;99.90;;;;;;5065042;28;20483;-87
2021/09/18 03:21:37;;;;;;;417.73;391.90;;;10.70;99.90;;;;;;5074829;28;20569;-87
2021/09/18 03:24:06;;;;;;;435.57;406.47;;;10.70;99.90;;;;;;5074855;28;20451;-82
2021/09/18 03:26:33;;;;;;;429.00;401.80;;;10.60;99.90;;;;;;5073378;28;20458;-86
2021/09/18 03:29:02;;;;;;;425.00;395.80;;;10.50;99.90;;;;;;5074472;28;20454;-84
2021/09/18 03:31:29;;;;;;;427.13;399.10;;;10.50;99.90;;;;;;5074747;28;20470;-85
2021/09/18 03:33:56;;;;;;;420.17;392.83;;;10.40;99.90;;;;;;5074743;28;20451;-86
2021/09/18 03:36:23;;;;;;;427.77;402.17;;;10.50;99.90;;;;;;5074341;28;20966;-81
2021/09/18 03:38:50;;;;;;;423.00;398.10;;;10.40;99.90;;;;;;5074286;28;20454;-87
2021/09/18 03:41:18;;;;;;;432.10;405.30;;;10.50;99.90;;;;;;5073042;28;20989;-87
2021/09/18 03:43:45;;;;;;;437.73;411.37;;;10.50;99.90;;;;;;5074270;28;20490;-89
2021/09/18 03:46:12;;;;;;;421.83;396.43;;;10.50;99.90;;;;;;5074238;28;20546;-89
2021/09/18 03:48:39;;;;;;;422.00;394.67;;;10.50;99.90;;;;;;5074105;28;20446;-87
2021/09/18 03:51:06;;;;;;;433.87;405.70;;;10.50;99.90;;;;;;5074128;28;20541;-87
2021/09/18 03:53:33;;;;;;;423.80;396.20;;;10.50;99.90;;;;;;5074220;28;20458;-87
2021/09/18 03:56:00;;;;;;;433.47;406.00;;;10.40;99.90;;;;;;5072767;28;20485;-89
2021/09/18 03:58:28;;;;;;;422.47;395.40;;;10.30;99.90;;;;;;5057207;28;20542;-88
2021/09/18 04:00:55;;;;;;;425.77;398.80;;;10.30;99.90;;;;;;5034117;28;20571;-88
2021/09/18 04:03:22;;;;;;;423.27;396.70;;;10.20;99.90;;;;;;5033762;28;20498;-88
2021/09/18 04:05:49;;;;;;;422.37;396.20;;;10.20;99.90;;;;;;5033942;28;20463;-89
2021/09/18 04:08:16;;;;;;;428.43;399.83;;;10.30;99.90;;;;;;5033822;28;20835;-88
2021/09/18 04:10:42;;;;;;;427.67;400.13;;;10.20;99.90;;;;;;5032854;28;20456;-87
2021/09/18 04:13:09;;;;;;;426.30;397.03;;;10.20;99.90;;;;;;5033932;28;20538;-84
2021/09/18 04:15:38;;;;;;;428.30;397.60;;;10.20;99.90;;;;;;5033711;28;20456;-89
2021/09/18 04:18:05;;;;;;;434.13;404.67;;;10.30;99.90;;;;;;5035027;28;20859;-89
2021/09/18 04:20:31;;;;;;;427.43;398.70;;;10.20;99.90;;;;;;5053614;28;20457;-90
2021/09/18 04:22:58;;;;;;;442.10;412.10;;;10.30;99.90;;;;;;5053456;28;20455;-90
2021/09/18 04:25:25;;;;;;;426.77;397.57;;;10.30;99.90;;;;;;5052406;28;20447;-89
2021/09/18 04:27:52;;;;;;;424.03;396.00;;;10.30;99.90;;;;;;5053492;28;20561;-87
2021/09/18 04:30:19;;;;;;;423.53;396.33;;;10.20;99.90;;;;;;5053463;28;20479;-90
2021/09/18 04:32:47;;;;;;;418.90;394.00;;;10.20;99.90;;;;;;5053455;28;20499;-89
2021/09/18 04:35:14;;;;;;;417.03;391.97;;;10.30;99.90;;;;;;5053292;28;20461;-87
2021/09/18 04:37:41;;;;;;;418.23;392.47;;;10.20;99.90;;;;;;5053028;28;20546;-89
2021/09/18 04:40:08;;;;;;;416.87;390.20;;;10.30;99.90;;;;;;5053169;28;20538;-88
2021/09/18 04:42:35;;;;;;;415.30;389.40;;;10.20;99.90;;;;;;5051875;28;20994;-89
2021/09/18 04:45:04;;;;;;;417.93;390.87;;;10.10;99.90;;;;;;5053384;28;20528;-87
2021/09/18 04:47:31;;;;;;;415.90;389.70;;;10.20;99.90;;;;;;5053154;28;20784;-82
2021/09/18 04:49:59;;;;;;;419.00;391.87;;;10.20;99.90;;;;;;5053083;28;20458;-83
2021/09/18 04:52:26;;;;;;;425.90;392.60;;;10.30;99.90;;;;;;5053216;28;20478;-78
2021/09/18 04:54:54;;;;;;;427.33;396.77;;;10.50;99.90;;;;;;5053062;28;20455;-84
2021/09/18 04:57:21;;;;;;;431.37;402.47;;;10.70;99.90;;;;;;5051886;28;20471;-86
2021/09/18 04:59:48;;;;;;;424.77;396.37;;;10.70;99.90;;;;;;5053590;28;20530;-88
2021/09/18 05:02:15;;;;;;;416.87;389.63;;;10.60;99.90;;;;;;5052652;28;20487;-87
2021/09/18 05:04:42;;;;;;;415.97;389.87;;;10.70;99.90;;;;;;5052936;28;20955;-86
2021/09/18 05:07:10;;;;;;;416.83;389.37;;;10.50;99.90;;;;;;5004794;28;20534;-83
2021/09/18 05:09:37;;;;;;;424.53;395.67;;;10.40;99.90;;;;;;5052664;28;20480;-87
2021/09/18 05:12:04;;;;;;;424.10;395.30;;;10.30;99.90;;;;;;5051598;28;20935;-84
2021/09/18 05:14:31;;;;;;;420.20;391.97;;;10.30;99.90;;;;;;5052956;28;20470;-87
2021/09/18 05:16:58;;;;;;;404.53;377.27;;;10.30;99.90;;;;;;5052985;28;20638;-88
2021/09/18 05:19:25;;;;;;;416.73;388.80;;;10.30;99.90;;;;;;5052627;28;20458;-87
2021/09/18 05:21:52;;;;;;;422.40;392.70;;;10.20;99.90;;;;;;5052727;28;20575;-88
2021/09/18 05:24:20;;;;;;;424.30;394.20;;;10.30;99.90;;;;;;5052631;28;20555;-87
2021/09/18 05:26:47;;;;;;;417.80;390.20;;;10.20;99.90;;;;;;5051137;28;20458;-88
2021/09/18 05:29:14;;;;;;;418.10;389.20;;;10.20;99.90;;;;;;5052574;28;20480;-88
2021/09/18 05:31:40;;;;;;;417.47;388.33;;;10.20;99.90;;;;;;5052508;28;20451;-87
2021/09/18 05:34:07;;;;;;;417.03;388.20;;;10.20;99.90;;;;;;5052508;28;20459;-88
2021/09/18 05:36:34;;;;;;;409.10;382.17;;;10.40;99.90;;;;;;5052630;28;20451;-86
2021/09/18 05:39:01;;;;;;;416.17;388.40;;;10.40;99.90;;;;;;5052458;28;20455;-87
2021/09/18 05:41:29;;;;;;;414.67;386.13;;;10.50;99.90;;;;;;5051422;28;20479;-85
2021/09/18 05:43:56;;;;;;;416.47;390.13;;;10.60;99.90;;;;;;5052548;28;20455;-83
2021/09/18 05:46:23;;;;;;;424.73;395.23;;;10.50;99.90;;;;;;5052264;28;20571;-85
2021/09/18 05:48:49;;;;;;;412.27;385.30;;;10.60;99.90;;;;;;5052312;28;20499;-76
2021/09/18 05:51:19;;;;;;;407.67;383.43;;;10.70;99.90;;;;;;5054562;28;20462;-81
2021/09/18 05:53:46;;;;;;;407.57;381.97;;;10.80;99.90;;;;;;5052887;28;20461;-79
2021/09/18 05:56:13;;;;;;;416.43;389.03;;;10.90;99.90;;;;;;5051034;28;20487;-87
2021/09/18 05:58:41;;;;;;;404.73;380.13;;;10.80;99.90;;;;;;5052400;28;20531;-87
2021/09/18 06:01:08;;;;;;;414.83;389.37;;;11.00;99.90;;;;;;5052319;28;20577;-87
2021/09/18 06:03:35;;;;;;;405.40;380.53;;;11.00;99.90;;;;;;5052436;28;20477;-88
2021/09/18 06:06:02;;;;;;;402.47;377.13;;;11.10;99.90;;;;;;5053173;28;20456;-86
2021/09/18 06:08:29;;;;;;;412.43;384.30;;;11.10;99.90;;;;;;5053357;28;20455;-88
2021/09/18 06:10:57;;;;;;;406.20;380.77;;;11.10;99.90;;;;;;5051647;28;20454;-88
2021/09/18 06:13:24;;;;;;;413.50;386.00;;;11.30;99.90;;;;;;5052709;28;20980;-88
2021/09/18 06:15:52;;;;;;;412.83;386.37;;;11.30;99.90;;;;;;5052207;28;20838;-87
2021/09/18 06:18:19;;;;;;;416.57;389.57;;;11.40;99.90;;;;;;5055205;28;20459;-86
2021/09/18 06:20:46;;;;;;;414.37;385.07;;;11.60;99.90;;;;;;5072350;28;20500;-86
2021/09/18 06:23:12;;;;;;;417.40;389.57;;;11.70;99.90;;;;;;5072206;28;20490;-85
2021/09/18 06:25:41;;;;;;;412.97;384.50;;;11.90;99.90;;;;;;5071025;28;20970;-83
2021/09/18 06:28:08;;;;;;;419.03;389.80;;;12.00;99.90;;;;;;5072142;28;20534;-89
2021/09/18 06:30:43;;;;;;;419.30;388.07;;;12.10;99.90;;;;;;5072084;28;21076;-82
2021/09/18 06:33:11;;;;;;;417.73;385.60;;;12.30;99.90;;;;;;5072513;28;20461;-77
2021/09/18 06:35:38;;;;;;;410.07;381.90;;;12.30;99.90;;;;;;5072159;28;20453;-81
2021/09/18 06:38:05;;;;;;;415.80;385.40;;;12.50;99.90;;;;;;5052694;28;20447;-89
2021/09/18 06:40:33;;;;;;;416.77;386.20;;;12.60;99.90;;;;;;5055318;28;20657;-90
2021/09/18 06:43:00;;;;;;;419.80;389.00;;;12.70;99.90;;;;;;5058116;28;20493;-80
2021/09/18 06:45:28;;;;;;;422.23;392.47;;;12.90;99.90;;;;;;5055841;28;20455;-88
2021/09/18 06:47:57;;;;;;;402.13;374.93;;;13.00;99.90;;;;;;5055953;28;20455;-89
2021/09/18 06:50:26;;;;;;;410.87;382.27;;;13.20;99.90;;;;;;5055954;28;21005;-88
2021/09/18 06:52:53;;;;;;;405.77;378.77;;;13.30;99.90;;;;;;5055739;28;20455;-84
2021/09/18 06:55:26;;;;;;;401.60;375.57;;;13.40;99.90;;;;;;5055958;28;20483;-88
2021/09/18 07:01:09;;;;;;;386.73;362.70;;;13.60;99.90;;;;;;4896855;29;20482;-79
2021/09/18 07:03:36;;;;;;;383.43;360.83;;;13.80;99.90;;;;;;4986576;28;20478;-88
2021/09/18 07:06:04;;;;;;;379.17;355.47;;;13.90;99.90;;;;;;5039363;28;20499;-82
2021/09/18 07:08:34;;;;;;;379.30;354.90;;;14.00;99.90;;;;;;5055280;28;20914;-87
2021/09/18 07:11:01;;;;;;;369.53;347.20;;;14.20;99.90;;;;;;5054698;28;20459;-86
2021/09/18 07:13:29;;;;;;;365.77;343.37;;;14.20;99.90;;;;;;5055651;28;20464;-86
2021/09/18 07:15:56;;;;;;;346.03;325.30;;;14.40;99.90;;;;;;5054866;28;20468;-85
2021/09/18 07:18:23;;;;;;;356.43;333.80;;;14.50;99.90;;;;;;5056518;28;20841;-85
2021/09/18 07:20:50;;;;;;;352.43;331.03;;;14.50;99.90;;;;;;5055461;28;20455;-89
2021/09/18 07:23:19;;;;;;;311.80;292.40;;;14.80;99.90;;;;;;5055299;28;20492;-88
2021/09/18 07:25:46;;;;;;;285.20;268.37;;;14.90;99.90;;;;;;5054548;28;20465;-83
2021/09/18 07:28:13;;;;;;;263.57;247.93;;;15.00;99.90;;;;;;5055760;28;20544;-90
2021/09/18 07:30:42;;;;;;;247.97;233.07;;;15.10;99.90;;;;;;5073109;28;20533;-89
2021/09/18 07:33:09;;;;;;;214.63;201.27;;;15.00;99.90;;;;;;5076037;28;21047;-88
2021/09/18 07:35:37;;;;;;;202.37;189.67;;;15.10;99.90;;;;;;5074811;28;21026;-88
2021/09/18 07:38:04;;;;;;;186.83;174.73;;;15.10;99.90;;;;;;5074520;28;20464;-88
2021/09/18 07:40:35;;;;;;;168.97;157.53;;;15.10;99.90;;;;;;5073401;28;20456;-89
2021/09/18 07:43:05;;;;;;;164.97;154.23;;;15.20;99.90;;;;;;5074435;28;20538;-88
2021/09/18 07:45:39;;;;;;;160.03;149.53;;;15.30;99.90;;;;;;5074755;28;20469;-89
2021/09/18 07:48:11;;;;;;;113.37;106.10;;;15.40;99.90;;;;;;5076652;28;20485;-88
2021/09/18 07:50:41;;;;;;;108.83;101.73;;;15.50;99.90;;;;;;5074500;28;20489;-88
2021/09/18 07:53:08;;;;;;;89.13;83.30;;;15.70;99.90;;;;;;5075576;28;20802;-88
2021/09/18 07:55:40;;;;;;;62.20;57.53;;;15.80;99.90;;;;;;5075521;28;20465;-88
2021/09/18 07:58:11;;;;;;;45.10;40.90;;;15.90;99.90;;;;;;5075258;28;20474;-88
2021/09/18 08:00:38;;;;;;;44.23;39.87;;;15.90;99.90;;;;;;5075407;28;20964;-89
2021/09/18 08:03:09;;;;;;;37.03;33.40;;;16.00;99.90;;;;;;5075829;28;20493;-88
2021/09/18 08:05:37;;;;;;;36.80;33.57;;;16.30;99.90;;;;;;5074438;28;20451;-89
2021/09/18 08:08:13;;;;;;;35.07;31.57;;;16.50;99.90;;;;;;5075604;28;20458;-89
2021/09/18 08:10:42;;;;;;;40.73;37.07;;;16.50;99.90;;;;;;5072920;28;21187;-87
2021/09/18 08:13:10;;;;;;;39.30;29.30;;;16.90;99.90;;;;;;5074798;28;20490;-88
2021/09/18 08:15:37;;;;;;;35.27;28.80;;;16.90;99.90;;;;;;5074872;28;20484;-89
2021/09/18 08:18:09;;;;;;;36.53;27.40;;;17.00;99.90;;;;;;5074396;28;20461;-87
2021/09/18 08:20:45;;;;;;;34.00;26.73;;;17.20;99.90;;;;;;5074707;28;20496;-88
2021/09/18 08:23:16;;;;;;;30.80;24.97;;;17.30;99.90;;;;;;5073784;28;20483;-89
2021/09/18 08:25:48;;;;;;;43.90;27.40;;;17.40;99.90;;;;;;5072671;28;20949;-89
2021/09/18 08:28:21;;;;;;;30.67;27.30;;;17.60;99.90;;;;;;5073480;28;20452;-88
2021/09/18 08:30:48;;;;;;;31.80;23.40;;;18.10;99.90;;;;;;5073598;28;20474;-88
2021/09/18 08:33:31;;;;;;;33.40;26.13;;;18.20;98.80;;;;;;5073130;28;20958;-89
2021/09/18 08:36:03;;;;;;;36.87;25.93;;;18.00;97.30;;;;;;5073322;28;20471;-90
2021/09/18 08:38:44;;;;;;;30.57;25.70;;;18.50;99.90;;;;;;5073599;28;20461;-89
2021/09/18 08:41:16;;;;;;;33.53;23.63;;;18.70;97.70;;;;;;5072134;28;20472;-90
2021/09/18 08:43:45;;;;;;;32.93;27.57;;;18.90;97.10;;;;;;5073089;28;20565;-90
2021/09/18 08:46:12;;;;;;;41.53;30.00;;;18.90;98.20;;;;;;5073211;28;20529;-89
2021/09/18 08:48:42;;;;;;;37.10;26.73;;;18.80;93.30;;;;;;5073007;28;20501;-88
2021/09/18 08:51:15;;;;;;;34.43;27.93;;;18.90;94.60;;;;;;5073411;28;20458;-89
2021/09/18 08:53:46;;;;;;;36.90;28.93;;;19.20;91.80;;;;;;5073232;28;20450;-89
2021/09/18 08:56:40;;;;;;;35.90;28.53;;;19.40;91.70;;;;;;5071941;28;20454;-89
2021/09/18 08:59:21;;;;;;;38.83;28.73;;;19.80;91.60;;;;;;5073350;28;21001;-90
2021/09/18 09:02:13;;;;;;;42.03;30.50;;;19.80;81.00;;;;;;5072424;28;20476;-90
2021/09/18 09:04:52;;;;;;;45.80;32.47;;;20.10;81.10;;;;;;5072875;28;20460;-90
2021/09/18 09:13:38;;;;;;;;;;;;;;;;;;;;;
2021/09/18 09:16:49;;;;;;;42.03;31.83;;;21.50;67.80;;;;;;5054731;28;20672;-90
2021/09/18 09:23:08;;;;;;;40.13;31.60;;;21.70;63.40;;;;;;5069832;28;20477;-90
2021/09/18 09:29:27;;;;;;;40.57;33.23;;;22.40;60.00;;;;;;5034486;28;20450;-88
2021/09/18 09:32:45;;;;;;;45.77;34.90;;;22.60;58.90;;;;;;4986223;28;20975;-90
2021/09/18 09:35:53;;;;;;;43.07;34.47;;;22.90;56.30;;;;;;5072776;28;20458;-91
2021/09/18 09:39:15;;;;;;;43.67;34.80;;;23.40;53.60;;;;;;5052276;28;20463;-91
2021/09/18 09:45:24;;;;;;;51.73;41.47;;;23.70;47.80;;;;;;5050759;28;20497;-91
2021/09/18 09:52:14;;;;;;;50.83;40.50;;;23.80;43.20;;;;;;5040499;23;21023;-91
2021/09/18 09:55:27;;;;;;;49.17;38.10;;;24.20;39.30;;;;;;4932718;29;20552;-90
2021/09/18 10:10:51;;;;;;;46.73;39.77;;;25.00;31.70;;;;;;5012927;22;20562;-88
2021/09/18 10:13:28;;;;;;;47.90;37.17;;;25.30;31.60;;;;;;5033151;28;20448;-91
2021/09/18 10:16:44;;;;;;;;;;;;;;;;;;;;;
2021/09/18 10:23:39;;;;;;;;;;;;;;;;;;;;;
2021/09/18 10:27:14;;;;;;;40.93;32.27;;;26.90;27.50;;;;;;5034782;28;20452;-93
2021/09/18 10:42:42;;;;;;;33.47;28.13;;;26.00;24.70;;;;;;4913735;29;20458;-91
2021/09/18 10:49:21;;;;;;;;;;;;;;;;;;;;;
2021/09/18 10:52:09;;;;;;;;;;;;;;;;;;;;;
2021/09/18 10:58:34;;;;;;;23.50;20.03;;;26.10;23.90;;;;;;4924011;29;20891;-91
2021/09/18 11:04:54;;;;;;;;;;;;;;;;;;;;;
2021/09/18 11:11:28;;;;;;;22.50;18.97;;;26.90;16.80;;;;;;4942187;28;20459;-90
2021/09/18 11:21:45;;;;;;;;;;;;;;;;;;;;;
2021/09/18 11:27:41;;;;;;;20.20;16.70;;;25.90;21.30;;;;;;4937040;28;20418;-90
2021/09/18 11:36:28;;;;;;;17.87;15.00;;;28.40;9.50;;;;;;5054609;28;20189;-91
2021/09/18 11:45:45;;;;;;;16.40;13.50;;;28.80;3.20;;;;;;5037450;28;20451;-92
2021/09/18 11:48:25;;;;;;;21.60;17.10;;;28.10;7.10;;;;;;5054323;28;20496;-85
2021/09/18 11:51:32;;;;;;;;;;;;;;;;;;;;;
2021/09/18 11:54:35;;;;;;;16.97;13.67;;;29.60;2.80;;;;;;5051181;28;20577;-90
2021/09/18 12:00:52;;;;;;;19.27;15.10;;;30.40;1.00;;;;;;5051811;28;20479;-92
2021/09/18 12:03:50;;;;;;;18.00;15.07;;;29.60;1.00;;;;;;5054072;28;20451;-92
2021/09/18 12:06:45;;;;;;;19.03;14.33;;;30.40;1.00;;;;;;5011912;28;20464;-92
2021/09/18 12:09:52;;;;;;;17.00;13.63;;;30.90;1.00;;;;;;5053998;28;20494;-92
2021/09/18 12:25:42;;;;;;;13.00;10.50;;;28.70;1.00;;;;;;4929815;29;20866;-93
2021/09/18 12:28:40;;;;;;;11.40;10.17;;;27.10;1.90;;;;;;4952910;28;20448;-92
2021/09/18 12:31:25;;;;;;;13.53;9.70;;;26.50;6.00;;;;;;5033664;28;20460;-90
2021/09/18 12:34:22;;;;;;;11.60;8.90;;;25.80;6.50;;;;;;5033854;28;20480;-90
2021/09/18 12:37:10;;;;;;;10.83;7.83;;;26.00;6.80;;;;;;5034028;28;20483;-91
2021/09/18 12:39:46;;;;;;;10.00;7.23;;;27.30;1.50;;;;;;5033483;28;21009;-91
2021/09/18 12:42:31;;;;;;;13.07;8.67;;;28.70;1.00;;;;;;5032483;28;20535;-91
2021/09/18 12:45:37;;;;;;;14.93;9.70;;;29.90;1.00;;;;;;5033705;28;20514;-92
2021/09/18 12:48:54;;;;;;;9.90;6.53;;;31.30;1.00;;;;;;5030274;28;20448;-92
2021/09/18 12:52:03;;;;;;;9.90;6.80;;;32.60;1.00;;;;;;4987842;28;20523;-92
2021/09/18 12:55:12;;;;;;;11.70;9.03;;;31.60;1.00;;;;;;4995596;28;20492;-92
2021/09/18 13:26:49;;;;;;;11.83;8.67;;;26.60;1.50;;;;;;5048386;28;20420;-91
2021/09/18 13:33:11;;;;;;;11.07;9.50;;;26.60;1.00;;;;;;4873061;28;20486;-93
2021/09/18 13:35:45;;;;;;;15.00;10.10;;;26.60;1.00;;;;;;5031555;28;20478;-90
2021/09/18 13:42:27;;;;;;;10.70;8.47;;;26.90;1.30;;;;;;4874692;29;20419;-91
2021/09/18 13:45:00;;;;;;;11.73;9.30;;;26.80;1.30;;;;;;5027182;28;20494;-91
2021/09/18 13:47:36;;;;;;;13.20;10.73;;;26.80;1.00;;;;;;5052633;28;20430;-92
2021/09/18 13:50:21;;;;;;;12.87;10.13;;;27.90;1.00;;;;;;5056642;28;20458;-92
2021/09/18 13:52:57;;;;;;;13.17;10.83;;;28.60;1.00;;;;;;5056810;28;20478;-90
2021/09/18 13:55:46;;;;;;;15.50;12.20;;;28.90;1.00;;;;;;5056314;28;20478;-92
2021/09/18 14:01:28;;;;;;;13.70;11.97;;;29.00;1.00;;;;;;5049348;28;20546;-91
2021/09/18 14:04:12;;;;;;;13.17;11.77;;;30.10;1.00;;;;;;5056481;28;20455;-92
2021/09/18 14:10:00;;;;;;;13.93;10.87;;;30.00;1.00;;;;;;5023747;28;20487;-90
2021/09/18 14:13:21;;;;;;;15.00;12.07;;;30.30;1.00;;;;;;5055268;28;20459;-93
2021/09/18 14:19:09;;;;;;;17.20;11.57;;;29.60;1.00;;;;;;5054734;28;20494;-87
2021/09/18 14:22:24;;;;;;;;;;;;;;;;;;;;;
2021/09/18 14:24:57;;;;;;;12.13;9.77;;;29.30;1.00;;;;;;5075662;28;20409;-91
2021/09/18 14:28:01;;;;;;;14.13;11.00;;;28.90;1.00;;;;;;5074684;28;20464;-91
2021/09/18 14:30:42;;;;;;;12.17;10.67;;;28.20;1.00;;;;;;5072837;28;20442;-91
2021/09/18 14:33:20;;;;;;;14.70;9.77;;;27.70;1.00;;;;;;5075959;28;20812;-90
2021/09/18 14:36:04;;;;;;;10.00;8.53;;;26.50;1.00;;;;;;5075746;28;20535;-90
2021/09/18 14:38:33;;;;;;;10.67;8.63;;;25.60;1.00;;;;;;5075678;28;20461;-91
2021/09/18 14:41:00;;;;;;;13.20;9.33;;;25.20;3.70;;;;;;5074635;28;20923;-91
2021/09/18 14:43:29;;;;;;;10.37;8.23;;;24.70;5.00;;;;;;5075904;28;20450;-92
2021/09/18 14:46:06;;;;;;;12.10;8.37;;;24.70;6.00;;;;;;5075634;28;20466;-90
2021/09/18 14:52:06;;;;;;;11.33;10.07;;;24.20;9.10;;;;;;5070989;28;20461;-91
2021/09/18 14:57:50;;;;;;;12.40;9.80;;;24.20;12.40;;;;;;5073496;28;20478;-89
2021/09/18 15:00:30;;;;;;;13.50;9.33;;;23.90;11.10;;;;;;5074105;28;20465;-91
2021/09/18 15:03:23;;;;;;;16.57;10.53;;;24.00;11.00;;;;;;5075378;28;20457;-93
2021/09/18 15:06:02;;;;;;;12.50;9.60;;;23.90;12.10;;;;;;5075144;28;20459;-91
2021/09/18 15:08:50;;;;;;;12.20;10.17;;;24.10;12.50;;;;;;5075044;28;20480;-92
2021/09/18 15:12:02;;;;;;;14.13;10.50;;;24.40;11.00;;;;;;5073927;28;20482;-91
2021/09/18 15:14:43;;;;;;;15.07;11.27;;;24.70;8.70;;;;;;5075273;28;20613;-91
2021/09/18 15:17:15;;;;;;;14.90;11.40;;;25.10;10.60;;;;;;5075416;28;20458;-92
2021/09/18 15:20:06;;;;;;;15.13;12.03;;;25.30;9.70;;;;;;5075138;28;20446;-91
2021/09/18 15:23:14;;;;;;;;;;;;;;;;;;;;;
2021/09/18 15:26:30;;;;;;;14.20;10.70;;;25.40;10.60;;;;;;5073608;28;20413;-90
2021/09/18 15:29:42;;;;;;;14.00;10.80;;;25.60;9.40;;;;;;5020989;28;20474;-91
2021/09/18 15:32:17;;;;;;;15.37;11.17;;;25.20;10.00;;;;;;5065682;28;20505;-89
2021/09/18 15:40:37;;;;;;;15.10;12.63;;;24.60;14.20;;;;;;5042988;28;20529;-88
2021/09/18 15:43:30;;;;;;;14.53;12.77;;;24.70;14.30;;;;;;5074536;28;20785;-91
2021/09/18 15:46:15;;;;;;;14.33;11.33;;;24.50;14.60;;;;;;5074539;28;20468;-91
2021/09/18 15:48:43;;;;;;;15.37;11.40;;;24.30;14.00;;;;;;5074006;28;20442;-85
2021/09/18 15:51:12;;;;;;;15.40;12.20;;;24.40;14.00;;;;;;5074527;28;20481;-82